Time;durP1;ratioP1;P1;durP2;ratioP2;P2;SDS_P1;SDS_P2;PMS_P1;PMS_P2;Temp;Humidity;BMP_temperature;BMP_pressure;BME280_temperature;BME280_humidity;BME280_pressure;Samples;Min_cycle;Max_cycle;Signal;HPM_P1;HPM_P2
2022/07/17 00:00:54;;;;;;;;;;;;;;;15.84;59.45;102723.03;5074254;28;19919;-36
2022/07/17 00:03:19;;;;;;;;;;;;;;;15.81;59.36;102728.09;5074262;28;19913;-35
2022/07/17 00:05:45;;;;;;;;;;;;;;;15.78;59.58;102718.47;5073837;28;19959;-35
2022/07/17 00:08:11;;;;;;;;;;;;;;;15.76;59.46;102723.28;5073877;28;19951;-35
2022/07/17 00:10:37;;;;;;;;;;;;;;;15.70;59.81;102714.09;5073165;28;19974;-35
2022/07/17 00:13:03;;;;;;;;;;;;;;;15.69;59.56;102706.16;5073469;28;20024;-36
2022/07/17 00:15:28;;;;;;;;;;;;;;;15.66;59.94;102715.63;5073497;28;20007;-36
2022/07/17 00:17:54;;;;;;;;;;;;;;;15.60;60.10;102712.88;5074528;28;20023;-36
2022/07/17 00:20:19;;;;;;;;;;;;;;;15.56;60.24;102717.09;5073500;28;19919;-36
2022/07/17 00:22:45;;;;;;;;;;;;;;;15.46;60.55;102706.66;5073818;28;20387;-36
2022/07/17 00:25:10;;;;;;;;;;;;;;;15.48;60.44;102712.75;5073929;28;20065;-36
2022/07/17 00:27:36;;;;;;;;;;;;;;;15.43;61.08;102712.59;5073493;28;19916;-36
2022/07/17 00:30:02;;;;;;;;;;;;;;;15.37;61.37;102713.44;5073477;28;20261;-36
2022/07/17 00:32:27;;;;;;;;;;;;;;;15.34;60.97;102720.16;5073812;28;19912;-36
2022/07/17 00:34:53;;;;;;;;;;;;;;;15.31;60.86;102714.31;5073577;28;19918;-36
2022/07/17 00:37:18;;;;;;;;;;;;;;;15.27;60.99;102722.06;5074141;28;19919;-36
2022/07/17 00:39:43;;;;;;;;;;;;;;;15.25;61.35;102712.47;5073735;28;19912;-36
2022/07/17 00:42:15;;;;;;;;;;;;;;;15.24;60.82;102713.50;5073259;28;19912;-36
2022/07/17 00:44:41;;;;;;;;;;;;;;;15.22;61.60;102707.44;5073210;28;19923;-36
2022/07/17 00:47:13;;;;;;;;;;;;;;;15.20;61.22;102711.22;5072970;28;19916;-36
2022/07/17 00:49:38;;;;;;;;;;;;;;;15.18;61.49;102724.22;5072895;28;20379;-36
2022/07/17 00:52:03;;;;;;;;;;;;;;;15.15;61.67;102719.19;5073255;28;19916;-36
2022/07/17 00:54:29;;;;;;;;;;;;;;;15.11;61.66;102728.03;5073328;28;19924;-36
2022/07/17 00:56:56;;;;;;;;;;;;;;;15.06;62.23;102723.22;5073138;28;19912;-36
2022/07/17 00:59:21;;;;;;;;;;;;;;;15.04;61.70;102719.88;5073011;28;20387;-36
2022/07/17 01:01:47;;;;;;;;;;;;;;;15.03;61.80;102715.50;5073059;28;19913;-36
2022/07/17 01:04:13;;;;;;;;;;;;;;;15.02;61.65;102713.78;5073340;28;19913;-36
2022/07/17 01:06:38;;;;;;;;;;;;;;;14.97;61.99;102715.50;5073514;28;19913;-36
2022/07/17 01:09:03;;;;;;;;;;;;;;;14.92;62.28;102707.97;5073007;28;19991;-36
2022/07/17 01:11:28;;;;;;;;;;;;;;;14.88;62.38;102707.59;5072782;28;19958;-36
2022/07/17 01:13:54;;;;;;;;;;;;;;;14.87;62.27;102710.50;5073670;28;19912;-36
2022/07/17 01:16:19;;;;;;;;;;;;;;;14.84;62.73;102705.50;5073229;28;19913;-36
2022/07/17 01:18:44;;;;;;;;;;;;;;;14.82;62.50;102697.53;5072590;28;19947;-36
2022/07/17 01:21:09;;;;;;;;;;;;;;;14.77;62.84;102700.06;5073398;28;19912;-36
2022/07/17 01:23:34;;;;;;;;;;;;;;;14.74;62.71;102697.78;5072582;28;20395;-36
2022/07/17 01:26:00;;;;;;;;;;;;;;;14.73;62.85;102693.34;5073073;28;19913;-36
2022/07/17 01:28:25;;;;;;;;;;;;;;;14.70;62.76;102699.25;5072600;28;20306;-36
2022/07/17 01:30:52;;;;;;;;;;;;;;;14.66;63.07;102703.44;5072473;28;19942;-36
2022/07/17 01:33:17;;;;;;;;;;;;;;;14.61;62.87;102698.63;5072664;28;20361;-36
2022/07/17 01:35:43;;;;;;;;;;;;;;;14.61;63.59;102701.34;5072399;28;19919;-36
2022/07/17 01:38:08;;;;;;;;;;;;;;;14.60;63.10;102693.41;5072454;28;19912;-36
2022/07/17 01:40:34;;;;;;;;;;;;;;;14.59;63.16;102692.56;5072657;28;19923;-36
2022/07/17 01:42:59;;;;;;;;;;;;;;;14.57;63.17;102691.94;5073714;28;19919;-36
2022/07/17 01:45:24;;;;;;;;;;;;;;;14.55;63.52;102688.59;5073123;28;20419;-36
2022/07/17 01:47:49;;;;;;;;;;;;;;;14.53;63.18;102701.56;5072936;28;20348;-36
2022/07/17 01:50:15;;;;;;;;;;;;;;;14.51;63.18;102689.25;5072291;28;19912;-36
2022/07/17 01:52:41;;;;;;;;;;;;;;;14.49;63.25;102703.03;5075494;28;19939;-36
2022/07/17 01:55:07;;;;;;;;;;;;;;;14.46;63.60;102708.06;5076089;28;20011;-36
2022/07/17 01:57:32;;;;;;;;;;;;;;;14.38;63.74;102707.22;5076855;28;19956;-36
2022/07/17 01:59:58;;;;;;;;;;;;;;;14.36;63.93;102708.50;5075707;28;20429;-36
2022/07/17 02:02:23;;;;;;;;;;;;;;;14.34;63.57;102707.84;5076260;28;19912;-36
2022/07/17 02:04:48;;;;;;;;;;;;;;;14.32;63.66;102710.78;5075741;28;19918;-36
2022/07/17 02:07:13;;;;;;;;;;;;;;;14.31;63.61;102716.44;5076475;28;19919;-36
2022/07/17 02:09:39;;;;;;;;;;;;;;;14.27;64.20;102707.03;5075827;28;19934;-36
2022/07/17 02:12:04;;;;;;;;;;;;;;;14.24;63.82;102712.88;5076363;28;19919;-36
2022/07/17 02:14:30;;;;;;;;;;;;;;;14.22;64.25;102706.81;5075649;28;20387;-36
2022/07/17 02:16:55;;;;;;;;;;;;;;;14.21;63.95;102710.59;5075674;28;19964;-36
2022/07/17 02:19:20;;;;;;;;;;;;;;;14.18;64.18;102712.66;5075701;28;19955;-36
2022/07/17 02:21:46;;;;;;;;;;;;;;;14.16;64.27;102708.50;5075365;28;19916;-36
2022/07/17 02:24:12;;;;;;;;;;;;;;;14.12;64.25;102708.06;5075544;28;19913;-36
2022/07/17 02:26:37;;;;;;;;;;;;;;;14.11;64.35;102714.56;5076306;28;19958;-36
2022/07/17 02:29:02;;;;;;;;;;;;;;;14.08;64.63;102703.25;5075785;28;19912;-36
2022/07/17 02:31:27;;;;;;;;;;;;;;;14.04;64.79;102707.44;5075788;28;20357;-36
2022/07/17 02:33:53;;;;;;;;;;;;;;;14.03;64.68;102716.66;5075040;28;19912;-36
2022/07/17 02:36:18;;;;;;;;;;;;;;;14.02;64.64;102720.44;5075439;28;19913;-36
2022/07/17 02:38:43;;;;;;;;;;;;;;;14.01;64.98;102718.75;5075579;28;20353;-36
2022/07/17 02:41:08;;;;;;;;;;;;;;;13.98;64.96;102717.28;5075516;28;20327;-36
2022/07/17 02:43:34;;;;;;;;;;;;;;;13.93;65.32;102710.78;5076226;28;19935;-36
2022/07/17 02:45:59;;;;;;;;;;;;;;;13.87;65.41;102702.41;5075707;28;19912;-36
2022/07/17 02:48:25;;;;;;;;;;;;;;;13.85;65.54;102701.78;5075686;28;19912;-36
2022/07/17 02:50:50;;;;;;;;;;;;;;;13.85;65.54;102700.94;5075089;28;20391;-36
2022/07/17 02:53:15;;;;;;;;;;;;;;;13.80;65.33;102695.28;5075353;28;20348;-36
2022/07/17 02:55:40;;;;;;;;;;;;;;;13.80;65.31;102703.44;5074955;28;19919;-36
2022/07/17 02:58:05;;;;;;;;;;;;;;;13.79;65.32;102701.78;5075190;28;19985;-36
2022/07/17 03:00:31;;;;;;;;;;;;;;;13.79;65.50;102702.59;5074622;28;19960;-36
2022/07/17 03:02:56;;;;;;;;;;;;;;;13.77;65.49;102712.88;5074270;28;20018;-36
2022/07/17 03:05:21;;;;;;;;;;;;;;;13.78;65.57;102719.13;5074842;28;19967;-36
2022/07/17 03:07:46;;;;;;;;;;;;;;;13.77;65.57;102720.19;5075340;28;19961;-36
2022/07/17 03:10:12;;;;;;;;;;;;;;;13.72;65.69;102719.97;5074698;28;19913;-36
2022/07/17 03:12:38;;;;;;;;;;;;;;;13.70;65.71;102717.44;5074447;28;20428;-36
2022/07/17 03:15:04;;;;;;;;;;;;;;;13.68;65.76;102718.69;5074226;28;19912;-36
2022/07/17 03:17:29;;;;;;;;;;;;;;;13.64;65.80;102721.81;5074529;28;20361;-36
2022/07/17 03:19:54;;;;;;;;;;;;;;;13.63;65.86;102728.31;5074276;28;19920;-36
2022/07/17 03:22:19;;;;;;;;;;;;;;;13.59;66.06;102718.88;5074205;28;19934;-36
2022/07/17 03:24:44;;;;;;;;;;;;;;;13.56;66.33;102719.28;5075120;28;19912;-36
2022/07/17 03:27:10;;;;;;;;;;;;;;;13.53;66.06;102718.88;5074938;28;19912;-36
2022/07/17 03:29:35;;;;;;;;;;;;;;;13.50;66.08;102717.41;5074315;28;19916;-36
2022/07/17 03:32:00;;;;;;;;;;;;;;;13.47;66.15;102725.13;5074279;28;19919;-36
2022/07/17 03:34:25;;;;;;;;;;;;;;;13.43;66.52;102719.28;5073804;28;19923;-36
2022/07/17 03:36:50;;;;;;;;;;;;;;;13.38;66.82;102716.31;5074191;28;19912;-36
2022/07/17 03:39:16;;;;;;;;;;;;;;;13.34;67.43;102713.16;5074145;28;19916;-36
2022/07/17 03:41:41;;;;;;;;;;;;;;;13.31;67.05;102713.56;5074151;28;19916;-36
2022/07/17 03:44:07;;;;;;;;;;;;;;;13.27;67.59;102711.47;5074557;28;19912;-36
2022/07/17 03:46:32;;;;;;;;;;;;;;;13.24;67.18;102711.88;5073953;28;20371;-36
2022/07/17 03:48:57;;;;;;;;;;;;;;;13.24;67.28;102711.88;5074161;28;20260;-36
2022/07/17 03:51:23;;;;;;;;;;;;;;;13.22;67.40;102706.63;5074139;28;19920;-36
2022/07/17 03:53:48;;;;;;;;;;;;;;;13.21;67.75;102710.38;5074466;28;20000;-36
2022/07/17 03:56:14;;;;;;;;;;;;;;;13.22;67.32;102712.06;5073760;28;20015;-36
2022/07/17 03:58:39;;;;;;;;;;;;;;;13.22;67.17;102724.81;5073732;28;19975;-36
2022/07/17 04:01:04;;;;;;;;;;;;;;;13.22;67.50;102728.38;5073936;28;20007;-36
2022/07/17 04:03:29;;;;;;;;;;;;;;;13.22;67.18;102727.53;5072503;28;20382;-36
2022/07/17 04:05:55;;;;;;;;;;;;;;;13.23;68.23;102735.50;5073286;28;19913;-36
2022/07/17 04:08:20;;;;;;;;;;;;;;;13.21;68.84;102742.97;5073842;28;20373;-36
2022/07/17 04:10:45;;;;;;;;;;;;;;;13.20;68.44;102735.88;5073470;28;19916;-36
2022/07/17 04:13:11;;;;;;;;;;;;;;;13.21;68.08;102726.66;5073747;28;19912;-36
2022/07/17 04:15:57;;;;;;;;;;;;;;;13.22;68.04;102738.41;5073161;28;20353;-36
2022/07/17 04:18:26;;;;;;;;;;;;;;;13.24;67.69;102739.06;5073773;28;19958;-36
2022/07/17 04:20:52;;;;;;;;;;;;;;;13.24;67.83;102737.16;5073649;28;20253;-36
2022/07/17 04:23:18;;;;;;;;;;;;;;;13.25;67.91;102738.00;5073629;28;19912;-36
2022/07/17 04:25:43;;;;;;;;;;;;;;;13.27;68.00;102746.78;5073085;28;20340;-36
2022/07/17 04:28:08;;;;;;;;;;;;;;;13.28;67.94;102743.06;5073574;28;20041;-36
2022/07/17 04:30:34;;;;;;;;;;;;;;;13.29;68.33;102742.00;5074029;28;19918;-36
2022/07/17 04:32:59;;;;;;;;;;;;;;;13.33;68.30;102735.13;5071842;28;19919;-36
2022/07/17 04:35:24;;;;;;;;;;;;;;;13.32;68.27;102725.28;5073281;28;19912;-36
2022/07/17 04:37:49;;;;;;;;;;;;;;;13.35;68.19;102733.88;5072976;28;19913;-36
2022/07/17 04:40:14;;;;;;;;;;;;;;;13.40;67.96;102731.38;5073182;28;19913;-36
2022/07/17 04:42:39;;;;;;;;;;;;;;;13.47;68.35;102738.69;5073245;28;19913;-36
2022/07/17 04:45:06;;;;;;;;;;;;;;;13.50;70.04;102747.28;5073384;28;19939;-36
2022/07/17 04:47:31;;;;;;;;;;;;;;;13.53;68.83;102746.06;5073644;28;19981;-36
2022/07/17 04:49:56;;;;;;;;;;;;;;;13.57;69.29;102745.44;5071745;28;19917;-36
2022/07/17 04:52:21;;;;;;;;;;;;;;;13.61;70.53;102743.97;5073452;28;19917;-36
2022/07/17 04:54:47;;;;;;;;;;;;;;;13.69;69.12;102742.13;5073155;28;19912;-36
2022/07/17 04:57:12;;;;;;;;;;;;;;;13.78;68.95;102747.16;5073128;28;20267;-36
2022/07/17 04:59:37;;;;;;;;;;;;;;;13.86;68.48;102749.69;5072948;28;20346;-36
2022/07/17 05:02:02;;;;;;;;;;;;;;;13.95;68.45;102750.31;5073363;28;20333;-36
2022/07/17 05:04:28;;;;;;;;;;;;;;;14.03;68.79;102746.56;5073715;28;20260;-36
2022/07/17 05:06:53;;;;;;;;;;;;;;;14.11;68.83;102747.22;5073231;28;19965;-36
2022/07/17 05:09:18;;;;;;;;;;;;;;;14.20;68.43;102736.09;5072954;28;19935;-36
2022/07/17 05:11:43;;;;;;;;;;;;;;;14.26;69.23;102736.13;5073857;28;19949;-36
2022/07/17 05:14:08;;;;;;;;;;;;;;;14.29;69.24;102738.41;5072557;28;19959;-36
2022/07/17 05:16:34;;;;;;;;;;;;;;;14.35;69.19;102736.75;5073112;28;19912;-36
2022/07/17 05:18:59;;;;;;;;;;;;;;;14.39;70.79;102744.25;5072608;28;20402;-36
2022/07/17 05:21:24;;;;;;;;;;;;;;;14.39;71.42;102748.88;5072870;28;19912;-36
2022/07/17 05:23:50;;;;;;;;;;;;;;;14.37;72.53;102742.81;5072501;28;19912;-35
2022/07/17 05:26:15;;;;;;;;;;;;;;;14.27;72.69;102736.97;5074383;28;19937;-35
2022/07/17 05:28:40;;;;;;;;;;;;;;;14.31;72.75;102738.22;5077055;28;19912;-35
2022/07/17 05:31:05;;;;;;;;;;;;;;;14.36;73.35;102746.59;5076899;28;19917;-35
2022/07/17 05:33:31;;;;;;;;;;;;;;;14.36;73.36;102741.16;5076735;28;20325;-35
2022/07/17 05:35:56;;;;;;;;;;;;;;;14.38;73.12;102739.88;5077289;28;20246;-35
2022/07/17 05:38:21;;;;;;;;;;;;;;;14.47;73.78;102743.22;5076697;28;19923;-35
2022/07/17 05:40:46;;;;;;;;;;;;;;;14.43;73.62;102742.81;5076323;28;20002;-35
2022/07/17 05:43:12;;;;;;;;;;;;;;;14.48;73.86;102736.75;5076937;28;19920;-35
2022/07/17 05:45:38;;;;;;;;;;;;;;;14.51;73.31;102739.06;5076243;28;19912;-36
2022/07/17 05:48:04;;;;;;;;;;;;;;;14.58;73.42;102736.31;5076010;28;20009;-36
2022/07/17 05:50:29;;;;;;;;;;;;;;;14.64;73.23;102738.19;5076243;28;19951;-36
2022/07/17 05:52:54;;;;;;;;;;;;;;;14.65;72.22;102742.63;5077237;28;19952;-36
2022/07/17 05:55:19;;;;;;;;;;;;;;;14.74;72.66;102743.19;5076263;28;20320;-36
2022/07/17 05:57:45;;;;;;;;;;;;;;;14.72;73.26;102734.41;5076842;28;19923;-36
2022/07/17 06:00:10;;;;;;;;;;;;;;;14.74;73.07;102735.03;5076468;28;19989;-36
2022/07/17 06:02:35;;;;;;;;;;;;;;;14.74;72.81;102735.03;5076494;28;20268;-36
2022/07/17 06:05:01;;;;;;;;;;;;;;;14.82;72.39;102723.91;5076413;28;19918;-36
2022/07/17 06:07:26;;;;;;;;;;;;;;;14.84;73.36;102716.41;5076709;28;19912;-36
2022/07/17 06:09:51;;;;;;;;;;;;;;;15.00;72.33;102724.09;5074822;28;19912;-36
2022/07/17 06:12:16;;;;;;;;;;;;;;;15.02;71.40;102713.78;5076137;28;19935;-36
2022/07/17 06:14:42;;;;;;;;;;;;;;;15.11;71.76;102712.50;5075709;28;20391;-36
2022/07/17 06:17:07;;;;;;;;;;;;;;;15.30;71.50;102690.84;5076482;28;20325;-36
2022/07/17 06:19:32;;;;;;;;;;;;;;;15.48;71.70;102696.41;5076195;28;19962;-36
2022/07/17 06:21:58;;;;;;;;;;;;;;;15.52;70.00;102714.00;5076789;28;19920;-36
2022/07/17 06:24:23;;;;;;;;;;;;;;;15.56;70.32;102717.09;5075610;28;20479;-36
2022/07/17 06:26:49;;;;;;;;;;;;;;;15.63;70.50;102726.97;5075907;28;20426;-36
2022/07/17 06:29:14;;;;;;;;;;;;;;;15.64;69.79;102731.34;5075459;28;19989;-36
2022/07/17 06:31:40;;;;;;;;;;;;;;;15.59;70.27;102742.06;5075927;28;19912;-36
2022/07/17 06:34:06;;;;;;;;;;;;;;;15.68;69.89;102734.50;5075274;28;19916;-36
2022/07/17 06:36:31;;;;;;;;;;;;;;;15.83;70.03;102731.47;5076061;28;19919;-36
2022/07/17 06:38:56;;;;;;;;;;;;;;;15.98;69.40;102725.69;5075155;28;19916;-36
2022/07/17 06:41:21;;;;;;;;;;;;;;;16.12;68.70;102740.91;5075310;28;19912;-36
2022/07/17 06:43:46;;;;;;;;;;;;;;;16.19;68.83;102737.03;5074904;28;20011;-36
2022/07/17 06:46:12;;;;;;;;;;;;;;;16.09;68.12;102738.59;5075639;28;19934;-36
2022/07/17 06:48:37;;;;;;;;;;;;;;;16.27;68.22;102754.22;5075588;28;20010;-36
2022/07/17 06:51:02;;;;;;;;;;;;;;;16.41;67.99;102761.25;5074123;28;19912;-36
2022/07/17 06:53:28;;;;;;;;;;;;;;;16.52;67.55;102755.03;5075505;28;20254;-36
2022/07/17 06:55:53;;;;;;;;;;;;;;;16.58;67.40;102751.41;5075043;28;19919;-36
2022/07/17 06:58:18;;;;;;;;;;;;;;;16.69;67.52;102756.13;5075125;28;19913;-36
2022/07/17 07:00:43;;;;;;;;;;;;;;;16.83;67.16;102761.47;5075121;28;19912;-36
2022/07/17 07:03:08;;;;;;;;;;;;;;;16.89;66.80;102766.06;5075204;28;19981;-36
2022/07/17 07:05:34;;;;;;;;;;;;;;;16.94;66.93;102771.69;5074863;28;19912;-36
2022/07/17 07:07:59;;;;;;;;;;;;;;;17.00;66.68;102773.50;5075285;28;19913;-36
2022/07/17 07:10:24;;;;;;;;;;;;;;;17.08;66.62;102778.66;5074759;28;19913;-36
2022/07/17 07:12:49;;;;;;;;;;;;;;;17.15;66.32;102784.88;5074909;28;20018;-36
2022/07/17 07:15:15;;;;;;;;;;;;;;;17.23;66.04;102784.59;5074612;28;19924;-36
2022/07/17 07:17:40;;;;;;;;;;;;;;;17.31;65.83;102777.13;5074569;28;19913;-36
2022/07/17 07:20:06;;;;;;;;;;;;;;;17.39;65.90;102777.66;5074219;28;19916;-36
2022/07/17 07:22:32;;;;;;;;;;;;;;;17.33;65.29;102773.13;5074880;28;19912;-36
2022/07/17 07:24:57;;;;;;;;;;;;;;;17.35;65.51;102776.44;5074910;28;19916;-36
2022/07/17 07:27:22;;;;;;;;;;;;;;;17.27;64.56;102778.63;5074947;28;20007;-36
2022/07/17 07:29:47;;;;;;;;;;;;;;;17.38;64.82;102777.91;5073994;28;20369;-36
2022/07/17 07:32:12;;;;;;;;;;;;;;;17.45;65.04;102774.00;5073984;28;19919;-36
2022/07/17 07:34:38;;;;;;;;;;;;;;;17.54;64.77;102770.94;5073041;28;19912;-36
2022/07/17 07:37:03;;;;;;;;;;;;;;;17.59;63.63;102774.66;5075009;28;20242;-36
2022/07/17 07:39:28;;;;;;;;;;;;;;;17.47;61.84;102776.50;5074405;28;19920;-36
2022/07/17 07:41:53;;;;;;;;;;;;;;;17.42;62.50;102766.28;5074605;28;20367;-36
2022/07/17 07:44:18;;;;;;;;;;;;;;;17.39;61.86;102769.44;5074028;28;19919;-36
2022/07/17 07:46:44;;;;;;;;;;;;;;;17.44;62.07;102771.50;5074662;28;20361;-36
2022/07/17 07:49:09;;;;;;;;;;;;;;;17.57;62.34;102776.81;5073436;28;19958;-36
2022/07/17 07:51:34;;;;;;;;;;;;;;;17.73;62.60;102783.56;5073946;28;19917;-36
2022/07/17 07:54:00;;;;;;;;;;;;;;;17.88;62.22;102781.22;5073698;28;19912;-36
2022/07/17 07:56:25;;;;;;;;;;;;;;;17.99;61.86;102782.31;5073784;28;19923;-36
2022/07/17 07:58:50;;;;;;;;;;;;;;;17.99;60.30;102787.81;5073768;28;19913;-36
2022/07/17 08:01:15;;;;;;;;;;;;;;;18.04;60.88;102787.94;5074287;28;19916;-36
2022/07/17 08:03:40;;;;;;;;;;;;;;;18.05;61.76;102786.84;5073705;28;19912;-36
2022/07/17 08:06:06;;;;;;;;;;;;;;;18.14;62.43;102785.44;5074447;28;19912;-36
2022/07/17 08:08:31;;;;;;;;;;;;;;;18.27;61.86;102787.16;5074105;28;19912;-36
2022/07/17 08:10:56;;;;;;;;;;;;;;;18.28;61.84;102784.19;5074324;28;20006;-36
2022/07/17 08:13:22;;;;;;;;;;;;;;;18.36;61.77;102784.91;5073498;28;19916;-36
2022/07/17 08:15:47;;;;;;;;;;;;;;;18.51;60.64;102790.75;5073724;28;19916;-36
2022/07/17 08:18:12;;;;;;;;;;;;;;;18.49;60.49;102790.16;5073219;28;20284;-36
2022/07/17 08:20:38;;;;;;;;;;;;;;;18.58;61.22;102782.41;5073470;28;20023;-36
2022/07/17 08:23:03;;;;;;;;;;;;;;;18.66;58.50;102784.81;5073951;28;19913;-36
2022/07/17 08:25:28;;;;;;;;;;;;;;;18.78;60.43;102783.75;5073159;28;19995;-36
2022/07/17 08:27:53;;;;;;;;;;;;;;;18.95;59.22;102783.88;5072090;28;19969;-36
2022/07/17 08:30:18;;;;;;;;;;;;;;;19.16;60.05;102782.41;5073640;28;20015;-36
2022/07/17 08:32:44;;;;;;;;;;;;;;;19.14;59.22;102781.81;5073611;28;20001;-36
2022/07/17 08:35:09;;;;;;;;;;;;;;;19.23;59.55;102782.28;5073430;28;20280;-36
2022/07/17 08:37:44;;;;;;;;;;;;;;;19.37;59.13;102775.41;5073252;28;19912;-36
2022/07/17 08:40:15;;;;;;;;;;;;;;;19.55;58.20;102782.66;5073012;28;19912;-37
2022/07/17 08:42:42;;;;;;;;;;;;;;;19.63;58.45;102778.72;5073833;28;19912;-36
2022/07/17 08:45:08;;;;;;;;;;;;;;;19.66;57.18;102776.28;5073172;28;19913;-36
2022/07/17 08:47:33;;;;;;;;;;;;;;;19.73;56.76;102777.00;5072935;28;19988;-36
2022/07/17 08:49:59;;;;;;;;;;;;;;;19.79;57.17;102786.16;5072941;28;19971;-36
2022/07/17 08:52:24;;;;;;;;;;;;;;;19.72;57.10;102782.75;5073567;28;19947;-36
2022/07/17 08:54:49;;;;;;;;;;;;;;;19.84;57.16;102775.28;5073319;28;20280;-37
2022/07/17 08:57:14;;;;;;;;;;;;;;;20.01;56.73;102769.81;5073326;28;20356;-37
2022/07/17 08:59:41;;;;;;;;;;;;;;;20.07;56.09;102768.81;5073022;28;20380;-37
2022/07/17 09:02:06;;;;;;;;;;;;;;;20.23;56.48;102768.00;5075655;28;19923;-37
2022/07/17 09:04:32;;;;;;;;;;;;;;;20.45;56.25;102770.00;5076898;28;19912;-37
2022/07/17 09:06:58;;;;;;;;;;;;;;;20.59;55.37;102771.31;5077298;28;19954;-37
2022/07/17 09:09:24;;;;;;;;;;;;;;;20.68;53.93;102772.56;5077046;28;20000;-37
2022/07/17 09:11:50;;;;;;;;;;;;;;;20.79;54.16;102771.66;5077799;28;19948;-37
2022/07/17 09:14:16;;;;;;;;;;;;;;;20.88;53.31;102773.94;5076844;28;19919;-37
2022/07/17 09:16:48;;;;;;;;;;;;;;;20.97;52.68;102770.50;5077150;28;19913;-37
2022/07/17 09:19:23;;;;;;;;;;;;;;;21.06;52.92;102766.22;5077133;28;19951;-37
2022/07/17 09:21:50;;;;;;;;;;;;;;;21.16;52.91;102765.53;5077078;28;19912;-37
2022/07/17 09:24:15;;;;;;;;;;;;;;;21.31;52.24;102771.25;5076669;28;20004;-37
2022/07/17 09:26:44;;;;;;;;;;;;;;;21.47;51.80;102765.91;5077047;28;19923;-37
2022/07/17 09:29:11;;;;;;;;;;;;;;;21.62;51.44;102770.75;5076667;28;20372;-37
2022/07/17 09:31:37;;;;;;;;;;;;;;;21.71;49.24;102766.47;5077312;28;19912;-37
2022/07/17 09:34:02;;;;;;;;;;;;;;;21.84;51.78;102752.28;5076454;28;20225;-35
2022/07/17 09:36:28;;;;;;;;;;;;;;;21.98;50.66;102742.50;5076183;28;19921;-36
2022/07/17 09:38:55;;;;;;;;;;;;;;;22.08;47.66;102748.09;5076035;28;19912;-36
2022/07/17 09:41:21;;;;;;;;;;;;;;;22.12;47.65;102739.34;5076464;28;19916;-36
2022/07/17 09:43:47;;;;;;;;;;;;;;;22.08;46.57;102747.25;5076029;28;19912;-36
2022/07/17 09:46:22;;;;;;;;;;;;;;;22.14;49.59;102751.75;5076783;28;20403;-37
2022/07/17 09:48:49;;;;;;;;;;;;;;;22.24;48.45;102749.06;5075959;28;19920;-36
2022/07/17 09:51:25;;;;;;;;;;;;;;;22.35;48.16;102750.84;5076657;28;20090;-36
2022/07/17 09:53:52;;;;;;;;;;;;;;;22.44;47.41;102750.31;5075843;28;19912;-36
2022/07/17 09:56:19;;;;;;;;;;;;;;;22.44;48.14;102737.38;5076905;28;19970;-36
2022/07/17 09:58:51;;;;;;;;;;;;;;;22.54;48.54;102753.97;5076309;28;19952;-36
2022/07/17 10:01:17;;;;;;;;;;;;;;;22.66;46.74;102751.03;5076319;28;19912;-36
2022/07/17 10:03:43;;;;;;;;;;;;;;;22.65;45.95;102754.88;5076626;28;20312;-36
2022/07/17 10:06:10;;;;;;;;;;;;;;;22.73;47.95;102757.13;5076456;28;19956;-36
2022/07/17 10:08:37;;;;;;;;;;;;;;;22.84;46.84;102760.78;5075937;28;20329;-36
2022/07/17 10:11:03;;;;;;;;;;;;;;;22.81;44.09;102764.06;5075657;28;19999;-35
2022/07/17 10:13:28;;;;;;;;;;;;;;;22.89;45.95;102760.84;5075162;28;20138;-36
2022/07/17 10:15:54;;;;;;;;;;;;;;;23.03;45.94;102761.16;5076006;28;20357;-36
2022/07/17 10:18:21;;;;;;;;;;;;;;;23.08;46.77;102755.69;5075744;28;20369;-37
2022/07/17 10:20:46;;;;;;;;;;;;;;;23.11;44.71;102753.22;5075019;28;20365;-36
2022/07/17 10:23:12;;;;;;;;;;;;;;;23.21;45.93;102746.91;5075719;28;19917;-36
2022/07/17 10:25:37;;;;;;;;;;;;;;;23.30;44.26;102750.81;5075380;28;19923;-36
2022/07/17 10:28:02;;;;;;;;;;;;;;;23.45;44.92;102746.44;5075012;28;20016;-36
2022/07/17 10:30:29;;;;;;;;;;;;;;;23.60;44.51;102754.75;5075378;28;19955;-35
2022/07/17 10:32:58;;;;;;;;;;;;;;;23.74;44.69;102744.88;5074669;28;19913;-35
2022/07/17 10:35:23;;;;;;;;;;;;;;;23.84;42.78;102742.13;5074869;28;19916;-36
2022/07/17 10:37:49;;;;;;;;;;;;;;;23.81;41.30;102753.72;5074424;28;19916;-37
2022/07/17 10:40:14;;;;;;;;;;;;;;;23.58;42.15;102746.75;5075172;28;19923;-36
2022/07/17 10:42:40;;;;;;;;;;;;;;;23.75;42.76;102746.53;5075616;28;20368;-36
2022/07/17 10:45:10;;;;;;;;;;;;;;;23.98;43.50;102742.41;5075591;28;19917;-37
2022/07/17 10:47:49;;;;;;;;;;;;;;;24.01;43.04;102750.16;5074749;28;19928;-36
2022/07/17 10:50:15;;;;;;;;;;;;;;;23.94;42.55;102749.59;5075133;28;19958;-36
2022/07/17 10:52:41;;;;;;;;;;;;;;;24.08;41.59;102747.09;5075215;28;19916;-36
2022/07/17 10:55:16;;;;;;;;;;;;;;;24.16;38.55;102735.50;5074977;28;19912;-36
2022/07/17 10:57:42;;;;;;;;;;;;;;;24.16;41.68;102743.81;5074751;28;19935;-36
2022/07/17 11:00:07;;;;;;;;;;;;;;;24.12;40.93;102748.22;5074726;28;20368;-36
2022/07/17 11:02:32;;;;;;;;;;;;;;;24.04;37.08;102752.34;5074235;28;20275;-36
2022/07/17 11:05:08;;;;;;;;;;;;;;;24.10;40.73;102747.66;5074718;28;19916;-36
2022/07/17 11:07:33;;;;;;;;;;;;;;;24.29;38.94;102740.44;5075960;28;19974;-36
2022/07/17 11:10:00;;;;;;;;;;;;;;;24.42;39.80;102747.38;5075051;28;19912;-37
2022/07/17 11:12:34;;;;;;;;;;;;;;;24.55;40.85;102746.81;5074791;28;19994;-37
2022/07/17 11:15:02;;;;;;;;;;;;;;;24.56;40.59;102736.59;5075091;28;20015;-37
2022/07/17 11:17:28;;;;;;;;;;;;;;;24.74;38.84;102746.19;5074882;28;19919;-36
2022/07/17 11:19:53;;;;;;;;;;;;;;;24.81;38.10;102746.75;5074485;28;20007;-36
2022/07/17 11:22:22;;;;;;;;;;;;;;;24.79;38.48;102743.41;5074973;28;19912;-35
2022/07/17 11:24:47;;;;;;;;;;;;;;;24.84;39.73;102741.50;5073478;28;19916;-36
2022/07/17 11:27:20;;;;;;;;;;;;;;;24.79;39.32;102735.97;5074267;28;19935;-36
2022/07/17 11:29:45;;;;;;;;;;;;;;;24.85;39.90;102732.06;5074389;28;19943;-35
2022/07/17 11:32:10;;;;;;;;;;;;;;;24.97;39.30;102731.75;5073512;28;19963;-36
2022/07/17 11:34:35;;;;;;;;;;;;;;;24.98;38.71;102732.56;5073863;28;19912;-36
2022/07/17 11:37:02;;;;;;;;;;;;;;;25.09;38.43;102721.22;5073556;28;19924;-36
2022/07/17 11:39:37;;;;;;;;;;;;;;;25.24;38.97;102734.16;5073994;28;19965;-36
2022/07/17 11:42:03;;;;;;;;;;;;;;;25.42;40.67;102736.25;5074005;28;19919;-36
2022/07/17 11:44:28;;;;;;;;;;;;;;;25.58;37.60;102728.69;5074065;28;19913;-36
2022/07/17 11:46:54;;;;;;;;;;;;;;;25.62;39.03;102729.78;5074298;28;19955;-36
2022/07/17 11:49:25;;;;;;;;;;;;;;;25.76;39.06;102729.97;5073603;28;19965;-36
2022/07/17 11:51:50;;;;;;;;;;;;;;;25.89;38.51;102722.94;5073377;28;20007;-37
2022/07/17 11:54:16;;;;;;;;;;;;;;;25.96;39.27;102720.66;5073470;28;20335;-36
2022/07/17 11:56:42;;;;;;;;;;;;;;;26.03;38.75;102725.88;5073180;28;19916;-36
2022/07/17 11:59:08;;;;;;;;;;;;;;;26.01;38.53;102719.78;5074011;28;19912;-36
2022/07/17 12:01:43;;;;;;;;;;;;;;;25.83;36.27;102718.56;5073487;28;19934;-36
2022/07/17 12:04:09;;;;;;;;;;;;;;;25.73;36.67;102713.91;5072509;28;19985;-36
2022/07/17 12:06:35;;;;;;;;;;;;;;;25.71;37.79;102718.88;5074253;28;19912;-36
2022/07/17 12:09:00;;;;;;;;;;;;;;;25.46;36.18;102708.81;5071335;28;20295;-36
2022/07/17 12:11:25;;;;;;;;;;;;;;;25.49;37.78;102707.44;5073154;28;19921;-37
2022/07/17 12:13:50;;;;;;;;;;;;;;;25.59;39.70;102712.88;5072251;28;19918;-37
2022/07/17 12:16:20;;;;;;;;;;;;;;;25.62;39.08;102717.84;5073362;28;20003;-36
2022/07/17 12:18:54;;;;;;;;;;;;;;;25.75;39.58;102714.47;5074014;28;19924;-36
2022/07/17 12:21:19;;;;;;;;;;;;;;;25.93;38.38;102705.44;5072968;28;20277;-37
2022/07/17 12:23:45;;;;;;;;;;;;;;;25.96;37.68;102697.66;5072724;28;19916;-37
2022/07/17 12:26:11;;;;;;;;;;;;;;;26.05;38.54;102707.00;5072632;28;20347;-37
2022/07/17 12:28:37;;;;;;;;;;;;;;;26.20;37.99;102702.13;5072884;28;19916;-36